KDUJ/DUJ METAR and TAF weather

Enter ICAO airport designator
Station Type Date Time Source
KDUJ METAR 2019/12/10 03:25 UTC NOAA

KDUJ 100325Z AUTO 22016G24KT 9SM OVC011 12/11 A2957 RMK AO2 PK WND 23031/0307 RAB0258E19 P0001 T01170106


Station Type Date Time Source
KDUJ Decoded METAR 2019/12/10 03:25 UTC NOAA

DU BOIS-JEFFERSON COUNTY, PA, United States (KDUJ) 41-11N 078-53W
Dec 09, 2019 - 10:25 PM EST / 2019.12.10 0325 UTC
Wind: from the SW (220 degrees) at 18 MPH (16 KT) gusting to 28 MPH (24 KT):0
Visibility: 9 mile(s):0
Sky conditions: overcast
Precipitation last hour: 0.01 inches
Temperature: 53.1 F (11.7 C)
Dew Point: 51.1 F (10.6 C)
Relative Humidity: 92%
Pressure (altimeter): 29.57 in. Hg (1001 hPa)
ob: KDUJ 100325Z AUTO 22016G24KT 9SM OVC011 12/11 A2957 RMK AO2 PK WND 23031/0307 RAB0258E19 P0001 T01170106
cycle: 3

Station Type Date Time Source
KDUJ TAF 2019/12/10 03:33 UTC NOAA

TAF
AMD KDUJ 100231Z 1003/1024 22011G17KT 4SM -SHRA BR OVC006 WS020/23045KT
FM100800 24014G20KT 5SM -SHRA OVC008
FM101000 25014G20KT P6SM VCSH OVC015
FM101500 27012KT P6SM OVC015
FM102200 27010G19KT P6SM OVC025

Example: see airport list